sensor_id;sensor_type;location;lat;lon;timestamp;temperature;humidity
23283;DHT22;11810;51.178;3.878;2023-07-31T00:00:30;17.20;99.90
23283;DHT22;11810;51.178;3.878;2023-07-31T00:02:56;17.20;99.90
23283;DHT22;11810;51.178;3.878;2023-07-31T00:05:22;17.20;99.90
23283;DHT22;11810;51.178;3.878;2023-07-31T00:07:48;17.10;99.90
23283;DHT22;11810;51.178;3.878;2023-07-31T00:10:14;17.10;99.90
23283;DHT22;11810;51.178;3.878;2023-07-31T00:12:41;17.10;99.90
23283;DHT22;11810;51.178;3.878;2023-07-31T00:15:08;17.20;99.90
23283;DHT22;11810;51.178;3.878;2023-07-31T00:17:34;17.20;99.90
23283;DHT22;11810;51.178;3.878;2023-07-31T00:20:00;17.20;99.90
23283;DHT22;11810;51.178;3.878;2023-07-31T00:22:26;17.10;99.90
23283;DHT22;11810;51.178;3.878;2023-07-31T00:24:52;17.10;99.90
23283;DHT22;11810;51.178;3.878;2023-07-31T00:27:18;17.10;99.90
23283;DHT22;11810;51.178;3.878;2023-07-31T00:29:44;17.20;99.90
23283;DHT22;11810;51.178;3.878;2023-07-31T00:32:10;17.10;99.90
23283;DHT22;11810;51.178;3.878;2023-07-31T00:34:35;17.10;99.90
23283;DHT22;11810;51.178;3.878;2023-07-31T00:37:01;17.10;99.90
23283;DHT22;11810;51.178;3.878;2023-07-31T00:39:30;17.10;99.90
23283;DHT22;11810;51.178;3.878;2023-07-31T00:41:56;17.10;99.90
23283;DHT22;11810;51.178;3.878;2023-07-31T00:44:22;17.20;99.90
23283;DHT22;11810;51.178;3.878;2023-07-31T00:46:48;17.20;99.90
23283;DHT22;11810;51.178;3.878;2023-07-31T00:49:15;17.20;99.90
23283;DHT22;11810;51.178;3.878;2023-07-31T00:51:41;17.10;99.90
23283;DHT22;11810;51.178;3.878;2023-07-31T00:54:07;17.20;99.90
23283;DHT22;11810;51.178;3.878;2023-07-31T00:56:34;17.20;99.90
23283;DHT22;11810;51.178;3.878;2023-07-31T00:59:00;17.10;99.90
23283;DHT22;11810;51.178;3.878;2023-07-31T01:01:26;17.20;99.90
23283;DHT22;11810;51.178;3.878;2023-07-31T01:03:53;17.20;99.90
23283;DHT22;11810;51.178;3.878;2023-07-31T01:06:43;17.20;99.90
23283;DHT22;11810;51.178;3.878;2023-07-31T01:09:30;17.20;99.90
23283;DHT22;11810;51.178;3.878;2023-07-31T01:12:04;17.20;99.90
23283;DHT22;11810;51.178;3.878;2023-07-31T01:14:30;17.30;99.90
23283;DHT22;11810;51.178;3.878;2023-07-31T01:16:56;17.20;99.90
23283;DHT22;11810;51.178;3.878;2023-07-31T01:19:23;17.20;99.90
23283;DHT22;11810;51.178;3.878;2023-07-31T01:24:41;17.20;99.90
23283;DHT22;11810;51.178;3.878;2023-07-31T01:27:13;17.20;99.90
23283;DHT22;11810;51.178;3.878;2023-07-31T01:32:40;17.20;99.90
23283;DHT22;11810;51.178;3.878;2023-07-31T01:35:06;17.20;99.90
23283;DHT22;11810;51.178;3.878;2023-07-31T01:37:33;17.20;99.90
23283;DHT22;11810;51.178;3.878;2023-07-31T01:39:59;17.20;99.90
23283;DHT22;11810;51.178;3.878;2023-07-31T01:42:25;17.10;99.90
23283;DHT22;11810;51.178;3.878;2023-07-31T01:44:51;17.10;99.90
23283;DHT22;11810;51.178;3.878;2023-07-31T01:47:17;17.00;99.90
23283;DHT22;11810;51.178;3.878;2023-07-31T01:49:43;17.10;99.90
23283;DHT22;11810;51.178;3.878;2023-07-31T01:52:08;17.20;99.90
23283;DHT22;11810;51.178;3.878;2023-07-31T01:54:34;17.10;99.90
23283;DHT22;11810;51.178;3.878;2023-07-31T01:57:02;17.20;99.90
23283;DHT22;11810;51.178;3.878;2023-07-31T01:59:28;17.20;99.90
23283;DHT22;11810;51.178;3.878;2023-07-31T02:01:54;17.20;99.90
23283;DHT22;11810;51.178;3.878;2023-07-31T02:04:20;17.10;99.90
23283;DHT22;11810;51.178;3.878;2023-07-31T02:06:46;17.10;99.90
23283;DHT22;11810;51.178;3.878;2023-07-31T02:09:12;17.20;99.90
23283;DHT22;11810;51.178;3.878;2023-07-31T02:11:38;17.30;99.90
23283;DHT22;11810;51.178;3.878;2023-07-31T02:14:04;17.30;99.90
23283;DHT22;11810;51.178;3.878;2023-07-31T02:16:30;17.20;99.90
23283;DHT22;11810;51.178;3.878;2023-07-31T02:18:55;17.20;99.90
23283;DHT22;11810;51.178;3.878;2023-07-31T02:21:21;17.20;99.90
23283;DHT22;11810;51.178;3.878;2023-07-31T02:23:47;17.40;99.90
23283;DHT22;11810;51.178;3.878;2023-07-31T02:26:13;17.40;99.90
23283;DHT22;11810;51.178;3.878;2023-07-31T02:28:39;17.40;99.90
23283;DHT22;11810;51.178;3.878;2023-07-31T02:31:08;17.50;99.90
23283;DHT22;11810;51.178;3.878;2023-07-31T02:33:34;17.50;99.90
23283;DHT22;11810;51.178;3.878;2023-07-31T02:36:00;17.50;99.90
23283;DHT22;11810;51.178;3.878;2023-07-31T02:38:26;17.50;99.90
23283;DHT22;11810;51.178;3.878;2023-07-31T02:40:52;17.50;99.90
23283;DHT22;11810;51.178;3.878;2023-07-31T02:43:18;17.40;99.90
23283;DHT22;11810;51.178;3.878;2023-07-31T02:45:44;17.50;99.90
23283;DHT22;11810;51.178;3.878;2023-07-31T02:48:10;17.60;99.90
23283;DHT22;11810;51.178;3.878;2023-07-31T02:50:35;17.60;99.90
23283;DHT22;11810;51.178;3.878;2023-07-31T02:53:01;17.70;99.90
23283;DHT22;11810;51.178;3.878;2023-07-31T02:55:27;17.60;99.90
23283;DHT22;11810;51.178;3.878;2023-07-31T02:57:53;17.70;99.90
23283;DHT22;11810;51.178;3.878;2023-07-31T03:00:19;17.80;99.90
23283;DHT22;11810;51.178;3.878;2023-07-31T03:02:45;17.90;99.90
23283;DHT22;11810;51.178;3.878;2023-07-31T03:05:11;17.70;99.90
23283;DHT22;11810;51.178;3.878;2023-07-31T03:07:37;17.60;99.90
23283;DHT22;11810;51.178;3.878;2023-07-31T03:10:03;17.80;99.90
23283;DHT22;11810;51.178;3.878;2023-07-31T03:12:29;17.70;99.90
23283;DHT22;11810;51.178;3.878;2023-07-31T03:14:55;17.80;99.90
23283;DHT22;11810;51.178;3.878;2023-07-31T03:17:21;17.60;99.90
23283;DHT22;11810;51.178;3.878;2023-07-31T03:19:47;17.70;99.90
23283;DHT22;11810;51.178;3.878;2023-07-31T03:22:13;17.80;99.90
23283;DHT22;11810;51.178;3.878;2023-07-31T03:24:39;17.60;99.90
23283;DHT22;11810;51.178;3.878;2023-07-31T03:27:05;17.50;99.90
23283;DHT22;11810;51.178;3.878;2023-07-31T03:29:31;17.50;99.90
23283;DHT22;11810;51.178;3.878;2023-07-31T03:31:57;17.50;99.90
23283;DHT22;11810;51.178;3.878;2023-07-31T03:34:23;17.30;99.90
23283;DHT22;11810;51.178;3.878;2023-07-31T03:36:49;17.30;99.90
23283;DHT22;11810;51.178;3.878;2023-07-31T03:39:15;17.30;99.90
23283;DHT22;11810;51.178;3.878;2023-07-31T03:41:41;17.40;99.90
23283;DHT22;11810;51.178;3.878;2023-07-31T03:44:07;17.40;99.90
23283;DHT22;11810;51.178;3.878;2023-07-31T03:46:33;17.50;99.90
23283;DHT22;11810;51.178;3.878;2023-07-31T03:49:00;17.20;99.90
23283;DHT22;11810;51.178;3.878;2023-07-31T03:51:26;17.20;99.90
23283;DHT22;11810;51.178;3.878;2023-07-31T03:53:52;17.40;99.90
23283;DHT22;11810;51.178;3.878;2023-07-31T03:56:18;17.40;99.90
23283;DHT22;11810;51.178;3.878;2023-07-31T03:58:43;17.40;99.90
23283;DHT22;11810;51.178;3.878;2023-07-31T04:01:09;17.60;99.90
23283;DHT22;11810;51.178;3.878;2023-07-31T04:03:35;17.50;99.90
23283;DHT22;11810;51.178;3.878;2023-07-31T04:06:01;17.30;99.90
23283;DHT22;11810;51.178;3.878;2023-07-31T04:08:27;17.30;99.90
23283;DHT22;11810;51.178;3.878;2023-07-31T04:10:53;17.30;99.90
23283;DHT22;11810;51.178;3.878;2023-07-31T04:13:19;17.20;99.90
23283;DHT22;11810;51.178;3.878;2023-07-31T04:15:51;17.20;99.90
23283;DHT22;11810;51.178;3.878;2023-07-31T04:18:17;17.20;99.90
23283;DHT22;11810;51.178;3.878;2023-07-31T04:20:43;17.20;99.90
23283;DHT22;11810;51.178;3.878;2023-07-31T04:23:09;17.30;99.90
23283;DHT22;11810;51.178;3.878;2023-07-31T04:25:35;17.30;99.90
23283;DHT22;11810;51.178;3.878;2023-07-31T04:28:01;17.30;99.90
23283;DHT22;11810;51.178;3.878;2023-07-31T04:30:27;17.20;99.90
23283;DHT22;11810;51.178;3.878;2023-07-31T04:32:53;17.20;99.90
23283;DHT22;11810;51.178;3.878;2023-07-31T04:35:19;17.20;99.90
23283;DHT22;11810;51.178;3.878;2023-07-31T04:37:45;17.30;99.90
23283;DHT22;11810;51.178;3.878;2023-07-31T04:40:15;17.50;99.90
23283;DHT22;11810;51.178;3.878;2023-07-31T04:42:41;17.50;99.90
23283;DHT22;11810;51.178;3.878;2023-07-31T04:45:08;17.50;99.90
23283;DHT22;11810;51.178;3.878;2023-07-31T04:47:35;17.50;99.90
23283;DHT22;11810;51.178;3.878;2023-07-31T04:50:01;17.50;99.90
23283;DHT22;11810;51.178;3.878;2023-07-31T04:52:26;17.60;99.90
23283;DHT22;11810;51.178;3.878;2023-07-31T04:54:52;17.30;99.90
23283;DHT22;11810;51.178;3.878;2023-07-31T04:57:18;17.30;99.90
23283;DHT22;11810;51.178;3.878;2023-07-31T04:59:44;17.30;99.90
23283;DHT22;11810;51.178;3.878;2023-07-31T05:02:12;17.20;99.90
23283;DHT22;11810;51.178;3.878;2023-07-31T05:04:38;17.20;99.90
23283;DHT22;11810;51.178;3.878;2023-07-31T05:07:05;17.10;99.90
23283;DHT22;11810;51.178;3.878;2023-07-31T05:09:31;17.20;99.90
23283;DHT22;11810;51.178;3.878;2023-07-31T05:11:56;17.20;99.90
23283;DHT22;11810;51.178;3.878;2023-07-31T05:14:23;17.20;99.90
23283;DHT22;11810;51.178;3.878;2023-07-31T05:16:49;17.30;99.90
23283;DHT22;11810;51.178;3.878;2023-07-31T05:19:14;17.20;99.90
23283;DHT22;11810;51.178;3.878;2023-07-31T05:21:40;17.20;99.90
23283;DHT22;11810;51.178;3.878;2023-07-31T05:24:06;17.30;99.90
23283;DHT22;11810;51.178;3.878;2023-07-31T05:26:32;17.20;99.90
23283;DHT22;11810;51.178;3.878;2023-07-31T05:28:58;17.30;99.90
23283;DHT22;11810;51.178;3.878;2023-07-31T05:31:24;17.30;99.90
23283;DHT22;11810;51.178;3.878;2023-07-31T05:33:50;17.40;99.90
23283;DHT22;11810;51.178;3.878;2023-07-31T05:36:17;17.40;99.90
23283;DHT22;11810;51.178;3.878;2023-07-31T05:38:43;17.40;99.90
23283;DHT22;11810;51.178;3.878;2023-07-31T05:41:12;17.60;99.90
23283;DHT22;11810;51.178;3.878;2023-07-31T05:43:39;17.70;99.90
23283;DHT22;11810;51.178;3.878;2023-07-31T05:46:05;17.70;99.90
23283;DHT22;11810;51.178;3.878;2023-07-31T05:48:32;17.70;99.90
23283;DHT22;11810;51.178;3.878;2023-07-31T05:50:59;17.70;99.90
23283;DHT22;11810;51.178;3.878;2023-07-31T05:53:25;17.60;99.90
23283;DHT22;11810;51.178;3.878;2023-07-31T05:55:51;17.30;99.90
23283;DHT22;11810;51.178;3.878;2023-07-31T05:58:17;17.30;99.90
23283;DHT22;11810;51.178;3.878;2023-07-31T06:00:43;17.40;99.90
23283;DHT22;11810;51.178;3.878;2023-07-31T06:03:09;17.30;99.90
23283;DHT22;11810;51.178;3.878;2023-07-31T06:05:35;17.50;99.90
23283;DHT22;11810;51.178;3.878;2023-07-31T06:08:01;17.50;99.90
23283;DHT22;11810;51.178;3.878;2023-07-31T06:10:27;17.60;99.90
23283;DHT22;11810;51.178;3.878;2023-07-31T06:12:54;17.60;99.90
23283;DHT22;11810;51.178;3.878;2023-07-31T06:15:20;17.70;99.90
23283;DHT22;11810;51.178;3.878;2023-07-31T06:17:46;17.60;99.90
23283;DHT22;11810;51.178;3.878;2023-07-31T06:20:12;17.50;99.90
23283;DHT22;11810;51.178;3.878;2023-07-31T06:22:38;17.60;99.90
23283;DHT22;11810;51.178;3.878;2023-07-31T06:25:04;17.60;99.90
23283;DHT22;11810;51.178;3.878;2023-07-31T06:27:30;17.70;99.90
23283;DHT22;11810;51.178;3.878;2023-07-31T06:29:56;17.80;99.90
23283;DHT22;11810;51.178;3.878;2023-07-31T06:32:22;17.70;99.90
23283;DHT22;11810;51.178;3.878;2023-07-31T06:34:48;17.80;99.90
23283;DHT22;11810;51.178;3.878;2023-07-31T06:37:14;17.70;99.90
23283;DHT22;11810;51.178;3.878;2023-07-31T06:39:39;17.70;99.90
23283;DHT22;11810;51.178;3.878;2023-07-31T06:42:06;17.70;99.90
23283;DHT22;11810;51.178;3.878;2023-07-31T06:44:32;17.70;99.90
23283;DHT22;11810;51.178;3.878;2023-07-31T06:46:58;17.70;99.90
23283;DHT22;11810;51.178;3.878;2023-07-31T06:49:24;17.90;99.90
23283;DHT22;11810;51.178;3.878;2023-07-31T06:51:50;18.00;99.90
23283;DHT22;11810;51.178;3.878;2023-07-31T06:54:16;18.00;99.90
23283;DHT22;11810;51.178;3.878;2023-07-31T06:56:42;17.90;99.90
23283;DHT22;11810;51.178;3.878;2023-07-31T06:59:08;17.80;99.90
23283;DHT22;11810;51.178;3.878;2023-07-31T07:01:33;17.80;99.90
23283;DHT22;11810;51.178;3.878;2023-07-31T07:04:00;17.90;99.90
23283;DHT22;11810;51.178;3.878;2023-07-31T07:06:26;18.00;99.90
23283;DHT22;11810;51.178;3.878;2023-07-31T07:08:52;18.10;99.90
23283;DHT22;11810;51.178;3.878;2023-07-31T07:11:18;18.10;99.90
23283;DHT22;11810;51.178;3.878;2023-07-31T07:13:44;18.00;99.90
23283;DHT22;11810;51.178;3.878;2023-07-31T07:16:10;18.00;99.90
23283;DHT22;11810;51.178;3.878;2023-07-31T07:18:36;18.10;99.90
23283;DHT22;11810;51.178;3.878;2023-07-31T07:21:02;18.20;99.90
23283;DHT22;11810;51.178;3.878;2023-07-31T07:23:28;18.20;99.90
23283;DHT22;11810;51.178;3.878;2023-07-31T07:25:54;18.10;99.90
23283;DHT22;11810;51.178;3.878;2023-07-31T07:28:20;18.00;99.90
23283;DHT22;11810;51.178;3.878;2023-07-31T07:30:53;18.00;99.90
23283;DHT22;11810;51.178;3.878;2023-07-31T07:33:19;17.90;99.90
23283;DHT22;11810;51.178;3.878;2023-07-31T07:35:45;18.10;99.90
23283;DHT22;11810;51.178;3.878;2023-07-31T07:38:13;18.30;99.90
23283;DHT22;11810;51.178;3.878;2023-07-31T07:40:39;18.30;99.90
23283;DHT22;11810;51.178;3.878;2023-07-31T07:43:06;18.30;99.90
23283;DHT22;11810;51.178;3.878;2023-07-31T07:45:32;18.40;99.90
23283;DHT22;11810;51.178;3.878;2023-07-31T07:47:57;18.40;99.90
23283;DHT22;11810;51.178;3.878;2023-07-31T07:50:25;18.60;99.90
23283;DHT22;11810;51.178;3.878;2023-07-31T07:52:50;18.60;99.90
23283;DHT22;11810;51.178;3.878;2023-07-31T07:55:16;18.50;99.90
23283;DHT22;11810;51.178;3.878;2023-07-31T07:57:42;18.30;99.90
23283;DHT22;11810;51.178;3.878;2023-07-31T08:00:10;18.40;99.90
23283;DHT22;11810;51.178;3.878;2023-07-31T08:02:36;18.30;99.90
23283;DHT22;11810;51.178;3.878;2023-07-31T08:05:02;18.50;99.90
23283;DHT22;11810;51.178;3.878;2023-07-31T08:07:28;18.50;99.90
23283;DHT22;11810;51.178;3.878;2023-07-31T08:09:54;18.50;99.90
23283;DHT22;11810;51.178;3.878;2023-07-31T08:12:20;18.60;99.90
23283;DHT22;11810;51.178;3.878;2023-07-31T08:14:46;18.60;99.90
23283;DHT22;11810;51.178;3.878;2023-07-31T08:17:12;18.70;99.90
23283;DHT22;11810;51.178;3.878;2023-07-31T08:19:38;18.70;99.90
23283;DHT22;11810;51.178;3.878;2023-07-31T08:22:04;18.80;99.90
23283;DHT22;11810;51.178;3.878;2023-07-31T08:24:30;19.00;99.90
23283;DHT22;11810;51.178;3.878;2023-07-31T08:26:56;19.00;99.90
23283;DHT22;11810;51.178;3.878;2023-07-31T08:29:22;18.90;99.90
23283;DHT22;11810;51.178;3.878;2023-07-31T08:31:49;18.90;99.90
23283;DHT22;11810;51.178;3.878;2023-07-31T08:34:15;18.90;99.90
23283;DHT22;11810;51.178;3.878;2023-07-31T08:36:41;19.00;99.90
23283;DHT22;11810;51.178;3.878;2023-07-31T08:39:07;19.40;99.90
23283;DHT22;11810;51.178;3.878;2023-07-31T08:41:38;20.10;99.90
23283;DHT22;11810;51.178;3.878;2023-07-31T08:44:05;20.00;99.90
23283;DHT22;11810;51.178;3.878;2023-07-31T08:46:33;20.00;99.90
23283;DHT22;11810;51.178;3.878;2023-07-31T08:48:59;19.80;99.90
23283;DHT22;11810;51.178;3.878;2023-07-31T08:51:26;19.80;99.90
23283;DHT22;11810;51.178;3.878;2023-07-31T08:53:53;20.00;99.90
23283;DHT22;11810;51.178;3.878;2023-07-31T08:56:20;19.80;99.90
23283;DHT22;11810;51.178;3.878;2023-07-31T08:58:46;20.00;99.90
23283;DHT22;11810;51.178;3.878;2023-07-31T09:01:14;20.00;99.90
23283;DHT22;11810;51.178;3.878;2023-07-31T09:03:41;20.00;99.90
23283;DHT22;11810;51.178;3.878;2023-07-31T09:06:07;19.90;99.90
23283;DHT22;11810;51.178;3.878;2023-07-31T09:08:34;20.20;99.90
23283;DHT22;11810;51.178;3.878;2023-07-31T09:11:01;20.10;99.90
23283;DHT22;11810;51.178;3.878;2023-07-31T09:13:30;20.30;99.90
23283;DHT22;11810;51.178;3.878;2023-07-31T09:15:57;20.40;99.90
23283;DHT22;11810;51.178;3.878;2023-07-31T09:18:23;20.40;99.90
23283;DHT22;11810;51.178;3.878;2023-07-31T09:21:05;20.20;99.90
23283;DHT22;11810;51.178;3.878;2023-07-31T09:23:44;20.20;99.90
23283;DHT22;11810;51.178;3.878;2023-07-31T09:26:11;20.10;99.90
23283;DHT22;11810;51.178;3.878;2023-07-31T09:28:37;20.30;99.90
23283;DHT22;11810;51.178;3.878;2023-07-31T09:31:03;20.60;99.90
23283;DHT22;11810;51.178;3.878;2023-07-31T09:33:29;20.40;99.90
23283;DHT22;11810;51.178;3.878;2023-07-31T09:35:58;20.50;99.90
23283;DHT22;11810;51.178;3.878;2023-07-31T09:38:25;20.00;99.90
23283;DHT22;11810;51.178;3.878;2023-07-31T09:40:51;19.90;99.90
23283;DHT22;11810;51.178;3.878;2023-07-31T09:43:19;20.20;99.90
23283;DHT22;11810;51.178;3.878;2023-07-31T09:45:45;20.20;99.90
23283;DHT22;11810;51.178;3.878;2023-07-31T09:48:14;20.40;99.90
23283;DHT22;11810;51.178;3.878;2023-07-31T09:50:48;20.50;99.90
23283;DHT22;11810;51.178;3.878;2023-07-31T09:53:16;20.40;99.90
23283;DHT22;11810;51.178;3.878;2023-07-31T09:55:42;20.30;99.90
23283;DHT22;11810;51.178;3.878;2023-07-31T09:58:11;20.40;99.90
23283;DHT22;11810;51.178;3.878;2023-07-31T10:00:37;20.60;99.90
23283;DHT22;11810;51.178;3.878;2023-07-31T10:03:08;20.70;99.90
23283;DHT22;11810;51.178;3.878;2023-07-31T10:05:53;20.90;99.90
23283;DHT22;11810;51.178;3.878;2023-07-31T10:08:26;20.60;99.90
23283;DHT22;11810;51.178;3.878;2023-07-31T10:10:55;20.50;99.90
23283;DHT22;11810;51.178;3.878;2023-07-31T10:13:24;20.40;99.90
23283;DHT22;11810;51.178;3.878;2023-07-31T10:15:50;20.40;99.90
23283;DHT22;11810;51.178;3.878;2023-07-31T10:18:18;20.40;99.90
23283;DHT22;11810;51.178;3.878;2023-07-31T10:20:46;20.50;99.90
23283;DHT22;11810;51.178;3.878;2023-07-31T10:23:13;20.60;99.90
23283;DHT22;11810;51.178;3.878;2023-07-31T10:25:40;20.80;99.90
23283;DHT22;11810;51.178;3.878;2023-07-31T10:28:08;21.00;99.90
23283;DHT22;11810;51.178;3.878;2023-07-31T10:30:36;20.80;99.90
23283;DHT22;11810;51.178;3.878;2023-07-31T10:33:05;20.50;99.90
23283;DHT22;11810;51.178;3.878;2023-07-31T10:35:31;20.20;99.90
23283;DHT22;11810;51.178;3.878;2023-07-31T10:38:10;20.10;99.90
23283;DHT22;11810;51.178;3.878;2023-07-31T10:40:37;20.20;99.90
23283;DHT22;11810;51.178;3.878;2023-07-31T10:43:03;20.50;99.90
23283;DHT22;11810;51.178;3.878;2023-07-31T10:48:04;20.50;99.90
23283;DHT22;11810;51.178;3.878;2023-07-31T10:50:32;20.60;99.90
23283;DHT22;11810;51.178;3.878;2023-07-31T10:52:59;20.90;99.90
23283;DHT22;11810;51.178;3.878;2023-07-31T10:56:01;20.70;99.90
23283;DHT22;11810;51.178;3.878;2023-07-31T10:58:20;20.70;99.90
23283;DHT22;11810;51.178;3.878;2023-07-31T11:00:47;20.90;99.90
23283;DHT22;11810;51.178;3.878;2023-07-31T11:03:17;20.90;99.90
23283;DHT22;11810;51.178;3.878;2023-07-31T11:06:00;21.00;99.90
23283;DHT22;11810;51.178;3.878;2023-07-31T11:08:32;21.00;99.90
23283;DHT22;11810;51.178;3.878;2023-07-31T11:13:49;21.10;99.90
23283;DHT22;11810;51.178;3.878;2023-07-31T11:16:15;21.00;99.90
23283;DHT22;11810;51.178;3.878;2023-07-31T11:18:43;21.10;99.90
23283;DHT22;11810;51.178;3.878;2023-07-31T11:21:13;20.80;99.90
23283;DHT22;11810;51.178;3.878;2023-07-31T11:23:39;20.90;99.90
23283;DHT22;11810;51.178;3.878;2023-07-31T11:26:06;21.00;99.90
23283;DHT22;11810;51.178;3.878;2023-07-31T11:28:34;21.00;99.90
23283;DHT22;11810;51.178;3.878;2023-07-31T11:31:00;21.00;99.90
23283;DHT22;11810;51.178;3.878;2023-07-31T11:33:27;20.90;99.90
23283;DHT22;11810;51.178;3.878;2023-07-31T11:35:53;20.90;99.90
23283;DHT22;11810;51.178;3.878;2023-07-31T11:38:30;20.90;99.90
23283;DHT22;11810;51.178;3.878;2023-07-31T11:41:01;20.90;99.90
23283;DHT22;11810;51.178;3.878;2023-07-31T11:43:31;20.80;99.90
23283;DHT22;11810;51.178;3.878;2023-07-31T11:46:01;20.90;99.90
23283;DHT22;11810;51.178;3.878;2023-07-31T11:48:35;20.90;99.90
23283;DHT22;11810;51.178;3.878;2023-07-31T11:51:06;21.00;99.90
23283;DHT22;11810;51.178;3.878;2023-07-31T11:56:09;21.10;99.90
23283;DHT22;11810;51.178;3.878;2023-07-31T11:58:37;21.00;99.90
23283;DHT22;11810;51.178;3.878;2023-07-31T12:01:04;21.10;99.90
23283;DHT22;11810;51.178;3.878;2023-07-31T12:03:31;21.30;99.90
23283;DHT22;11810;51.178;3.878;2023-07-31T12:05:58;21.50;99.90
23283;DHT22;11810;51.178;3.878;2023-07-31T12:08:25;21.50;99.90
23283;DHT22;11810;51.178;3.878;2023-07-31T12:10:52;21.60;99.90
23283;DHT22;11810;51.178;3.878;2023-07-31T12:13:23;21.20;99.90
23283;DHT22;11810;51.178;3.878;2023-07-31T12:15:49;21.20;99.90
23283;DHT22;11810;51.178;3.878;2023-07-31T12:18:20;21.00;99.90
23283;DHT22;11810;51.178;3.878;2023-07-31T12:20:57;21.10;99.90
23283;DHT22;11810;51.178;3.878;2023-07-31T12:23:28;21.00;99.90
23283;DHT22;11810;51.178;3.878;2023-07-31T12:26:07;21.10;99.90
23283;DHT22;11810;51.178;3.878;2023-07-31T12:28:47;21.20;99.90
23283;DHT22;11810;51.178;3.878;2023-07-31T12:31:22;21.00;99.90
23283;DHT22;11810;51.178;3.878;2023-07-31T12:33:50;20.70;99.90
23283;DHT22;11810;51.178;3.878;2023-07-31T12:36:24;20.50;99.90
23283;DHT22;11810;51.178;3.878;2023-07-31T12:38:51;20.40;99.90
23283;DHT22;11810;51.178;3.878;2023-07-31T12:41:17;20.30;99.90
23283;DHT22;11810;51.178;3.878;2023-07-31T12:43:45;20.30;99.90
23283;DHT22;11810;51.178;3.878;2023-07-31T12:46:11;19.90;99.90
23283;DHT22;11810;51.178;3.878;2023-07-31T12:48:38;19.90;99.90
23283;DHT22;11810;51.178;3.878;2023-07-31T12:51:05;19.80;99.90
23283;DHT22;11810;51.178;3.878;2023-07-31T12:53:32;19.80;99.90
23283;DHT22;11810;51.178;3.878;2023-07-31T12:55:58;19.90;99.90
23283;DHT22;11810;51.178;3.878;2023-07-31T12:58:24;20.10;99.90
23283;DHT22;11810;51.178;3.878;2023-07-31T13:00:51;20.10;99.90
23283;DHT22;11810;51.178;3.878;2023-07-31T13:03:17;20.00;99.90
23283;DHT22;11810;51.178;3.878;2023-07-31T13:05:43;20.10;99.90
23283;DHT22;11810;51.178;3.878;2023-07-31T13:08:09;20.20;99.90
23283;DHT22;11810;51.178;3.878;2023-07-31T13:10:35;20.30;99.90
23283;DHT22;11810;51.178;3.878;2023-07-31T13:13:01;20.40;99.90
23283;DHT22;11810;51.178;3.878;2023-07-31T13:15:27;20.30;99.90
23283;DHT22;11810;51.178;3.878;2023-07-31T13:17:53;20.10;99.90
23283;DHT22;11810;51.178;3.878;2023-07-31T13:20:19;20.00;99.90
23283;DHT22;11810;51.178;3.878;2023-07-31T13:22:45;20.00;99.90
23283;DHT22;11810;51.178;3.878;2023-07-31T13:25:10;19.70;99.90
23283;DHT22;11810;51.178;3.878;2023-07-31T13:27:36;19.70;99.90
23283;DHT22;11810;51.178;3.878;2023-07-31T13:30:03;19.60;99.90
23283;DHT22;11810;51.178;3.878;2023-07-31T13:32:29;19.70;99.90
23283;DHT22;11810;51.178;3.878;2023-07-31T13:34:55;19.60;99.90
23283;DHT22;11810;51.178;3.878;2023-07-31T13:37:21;19.70;99.90
23283;DHT22;11810;51.178;3.878;2023-07-31T13:39:47;19.50;99.90
23283;DHT22;11810;51.178;3.878;2023-07-31T13:42:13;19.50;99.90
23283;DHT22;11810;51.178;3.878;2023-07-31T13:44:40;19.50;99.90
23283;DHT22;11810;51.178;3.878;2023-07-31T13:47:07;19.20;99.90
23283;DHT22;11810;51.178;3.878;2023-07-31T13:49:33;19.20;99.90
23283;DHT22;11810;51.178;3.878;2023-07-31T13:52:00;19.20;99.90
23283;DHT22;11810;51.178;3.878;2023-07-31T13:54:26;19.30;99.90
23283;DHT22;11810;51.178;3.878;2023-07-31T13:56:53;19.50;99.90
23283;DHT22;11810;51.178;3.878;2023-07-31T13:59:19;19.60;99.90
23283;DHT22;11810;51.178;3.878;2023-07-31T14:01:45;19.60;99.90
23283;DHT22;11810;51.178;3.878;2023-07-31T14:04:11;19.70;99.90
23283;DHT22;11810;51.178;3.878;2023-07-31T14:06:37;19.80;99.90
23283;DHT22;11810;51.178;3.878;2023-07-31T14:09:04;19.50;99.90
23283;DHT22;11810;51.178;3.878;2023-07-31T14:11:33;19.60;99.90
23283;DHT22;11810;51.178;3.878;2023-07-31T14:13:58;19.70;99.90
23283;DHT22;11810;51.178;3.878;2023-07-31T14:16:25;19.60;99.90
23283;DHT22;11810;51.178;3.878;2023-07-31T14:18:51;19.60;99.90
23283;DHT22;11810;51.178;3.878;2023-07-31T14:21:19;19.60;99.90
23283;DHT22;11810;51.178;3.878;2023-07-31T14:23:45;19.60;99.90
23283;DHT22;11810;51.178;3.878;2023-07-31T14:26:11;19.60;99.90
23283;DHT22;11810;51.178;3.878;2023-07-31T14:28:37;19.60;99.90
23283;DHT22;11810;51.178;3.878;2023-07-31T14:31:03;19.60;99.90
23283;DHT22;11810;51.178;3.878;2023-07-31T14:33:29;19.60;99.90
23283;DHT22;11810;51.178;3.878;2023-07-31T14:35:55;19.80;99.90
23283;DHT22;11810;51.178;3.878;2023-07-31T14:38:21;19.80;99.90
23283;DHT22;11810;51.178;3.878;2023-07-31T14:40:47;19.70;99.90
23283;DHT22;11810;51.178;3.878;2023-07-31T14:43:13;19.40;99.90
23283;DHT22;11810;51.178;3.878;2023-07-31T14:45:39;19.40;99.90
23283;DHT22;11810;51.178;3.878;2023-07-31T14:48:05;19.50;99.90
23283;DHT22;11810;51.178;3.878;2023-07-31T14:50:31;19.60;99.90
23283;DHT22;11810;51.178;3.878;2023-07-31T14:52:57;19.60;99.90
23283;DHT22;11810;51.178;3.878;2023-07-31T14:55:23;19.70;99.90
23283;DHT22;11810;51.178;3.878;2023-07-31T14:57:50;19.70;99.90
23283;DHT22;11810;51.178;3.878;2023-07-31T15:00:16;19.70;99.90
23283;DHT22;11810;51.178;3.878;2023-07-31T15:02:42;19.60;99.90
23283;DHT22;11810;51.178;3.878;2023-07-31T15:05:08;19.60;99.90
23283;DHT22;11810;51.178;3.878;2023-07-31T15:07:34;19.70;99.90
23283;DHT22;11810;51.178;3.878;2023-07-31T15:10:01;19.60;99.90
23283;DHT22;11810;51.178;3.878;2023-07-31T15:12:28;19.60;99.90
23283;DHT22;11810;51.178;3.878;2023-07-31T15:14:54;19.60;99.90
23283;DHT22;11810;51.178;3.878;2023-07-31T15:17:20;19.50;99.90
23283;DHT22;11810;51.178;3.878;2023-07-31T15:19:46;19.50;99.90
23283;DHT22;11810;51.178;3.878;2023-07-31T15:22:12;19.40;99.90
23283;DHT22;11810;51.178;3.878;2023-07-31T15:24:38;19.40;99.90
23283;DHT22;11810;51.178;3.878;2023-07-31T15:27:04;19.40;99.90
23283;DHT22;11810;51.178;3.878;2023-07-31T15:29:30;19.30;99.90
23283;DHT22;11810;51.178;3.878;2023-07-31T15:31:57;19.10;99.90
23283;DHT22;11810;51.178;3.878;2023-07-31T15:34:22;18.90;99.90
23283;DHT22;11810;51.178;3.878;2023-07-31T15:36:50;18.90;99.90
23283;DHT22;11810;51.178;3.878;2023-07-31T15:39:16;19.00;99.90
23283;DHT22;11810;51.178;3.878;2023-07-31T15:41:42;18.90;99.90